sensor_id;sensor_type;location;lat;lon;timestamp;temperature;humidity
13123;DHT22;6627;50.920;12.050;2023-09-18T00:00:10;16.70;99.90
13123;DHT22;6627;50.920;12.050;2023-09-18T00:02:43;16.60;99.90
13123;DHT22;6627;50.920;12.050;2023-09-18T00:05:10;16.90;99.90
13123;DHT22;6627;50.920;12.050;2023-09-18T00:07:42;16.80;99.90
13123;DHT22;6627;50.920;12.050;2023-09-18T00:10:11;16.80;99.90
13123;DHT22;6627;50.920;12.050;2023-09-18T00:12:39;16.60;99.90
13123;DHT22;6627;50.920;12.050;2023-09-18T00:15:07;16.40;99.90
13123;DHT22;6627;50.920;12.050;2023-09-18T00:17:35;16.30;99.90
13123;DHT22;6627;50.920;12.050;2023-09-18T00:20:08;16.30;99.90
13123;DHT22;6627;50.920;12.050;2023-09-18T00:22:40;16.30;99.90
13123;DHT22;6627;50.920;12.050;2023-09-18T00:25:07;16.30;99.90
13123;DHT22;6627;50.920;12.050;2023-09-18T00:27:36;16.30;99.90
13123;DHT22;6627;50.920;12.050;2023-09-18T00:30:04;16.30;99.90
13123;DHT22;6627;50.920;12.050;2023-09-18T00:32:33;16.30;99.90
13123;DHT22;6627;50.920;12.050;2023-09-18T00:35:01;16.20;99.90
13123;DHT22;6627;50.920;12.050;2023-09-18T00:37:28;16.30;99.90
13123;DHT22;6627;50.920;12.050;2023-09-18T00:39:56;16.30;99.90
13123;DHT22;6627;50.920;12.050;2023-09-18T00:42:28;16.30;99.90
13123;DHT22;6627;50.920;12.050;2023-09-18T00:45:06;16.30;99.90
13123;DHT22;6627;50.920;12.050;2023-09-18T00:47:40;16.40;99.90
13123;DHT22;6627;50.920;12.050;2023-09-18T00:50:15;16.50;99.90
13123;DHT22;6627;50.920;12.050;2023-09-18T00:52:42;16.50;99.90
13123;DHT22;6627;50.920;12.050;2023-09-18T00:55:10;16.70;99.90
13123;DHT22;6627;50.920;12.050;2023-09-18T00:57:44;16.80;99.90
13123;DHT22;6627;50.920;12.050;2023-09-18T01:00:19;16.80;99.90
13123;DHT22;6627;50.920;12.050;2023-09-18T01:02:48;16.80;99.90
13123;DHT22;6627;50.920;12.050;2023-09-18T01:05:16;16.80;99.90
13123;DHT22;6627;50.920;12.050;2023-09-18T01:07:43;16.60;99.90
13123;DHT22;6627;50.920;12.050;2023-09-18T01:10:12;16.40;99.90
13123;DHT22;6627;50.920;12.050;2023-09-18T01:15:29;16.00;99.90
13123;DHT22;6627;50.920;12.050;2023-09-18T01:18:19;16.00;99.90
13123;DHT22;6627;50.920;12.050;2023-09-18T01:20:46;16.00;99.90
13123;DHT22;6627;50.920;12.050;2023-09-18T01:23:15;15.80;99.90
13123;DHT22;6627;50.920;12.050;2023-09-18T01:25:42;15.90;99.90
13123;DHT22;6627;50.920;12.050;2023-09-18T01:28:18;16.00;99.90
13123;DHT22;6627;50.920;12.050;2023-09-18T01:30:45;16.20;99.90
13123;DHT22;6627;50.920;12.050;2023-09-18T01:33:13;16.30;99.90
13123;DHT22;6627;50.920;12.050;2023-09-18T01:35:45;16.40;99.90
13123;DHT22;6627;50.920;12.050;2023-09-18T01:38:14;16.50;99.90
13123;DHT22;6627;50.920;12.050;2023-09-18T01:40:42;16.50;99.90
13123;DHT22;6627;50.920;12.050;2023-09-18T01:43:10;16.50;99.90
13123;DHT22;6627;50.920;12.050;2023-09-18T01:45:38;16.50;99.90
13123;DHT22;6627;50.920;12.050;2023-09-18T01:48:06;16.50;99.90
13123;DHT22;6627;50.920;12.050;2023-09-18T01:50:34;16.50;99.90
13123;DHT22;6627;50.920;12.050;2023-09-18T01:53:03;16.50;99.90
13123;DHT22;6627;50.920;12.050;2023-09-18T01:55:32;16.30;99.90
13123;DHT22;6627;50.920;12.050;2023-09-18T01:58:00;16.30;99.90
13123;DHT22;6627;50.920;12.050;2023-09-18T02:00:28;16.40;99.90
13123;DHT22;6627;50.920;12.050;2023-09-18T02:02:56;16.30;99.90
13123;DHT22;6627;50.920;12.050;2023-09-18T02:07:56;16.20;99.90
13123;DHT22;6627;50.920;12.050;2023-09-18T02:27:55;16.20;99.90
13123;DHT22;6627;50.920;12.050;2023-09-18T02:30:23;16.20;99.90
13123;DHT22;6627;50.920;12.050;2023-09-18T02:32:52;16.20;99.90
13123;DHT22;6627;50.920;12.050;2023-09-18T02:35:24;16.20;99.90
13123;DHT22;6627;50.920;12.050;2023-09-18T02:37:57;16.20;99.90
13123;DHT22;6627;50.920;12.050;2023-09-18T02:40:31;15.90;99.90
13123;DHT22;6627;50.920;12.050;2023-09-18T02:43:00;15.90;99.90
13123;DHT22;6627;50.920;12.050;2023-09-18T02:45:28;15.90;99.90
13123;DHT22;6627;50.920;12.050;2023-09-18T02:47:55;15.80;99.90
13123;DHT22;6627;50.920;12.050;2023-09-18T02:50:28;15.50;99.90
13123;DHT22;6627;50.920;12.050;2023-09-18T02:52:55;15.30;99.90
13123;DHT22;6627;50.920;12.050;2023-09-18T02:55:22;15.20;99.90
13123;DHT22;6627;50.920;12.050;2023-09-18T02:57:50;15.10;99.90
13123;DHT22;6627;50.920;12.050;2023-09-18T03:00:19;15.00;99.90
13123;DHT22;6627;50.920;12.050;2023-09-18T03:02:47;15.00;99.90
13123;DHT22;6627;50.920;12.050;2023-09-18T03:05:34;15.20;99.90
13123;DHT22;6627;50.920;12.050;2023-09-18T03:08:01;15.20;99.90
13123;DHT22;6627;50.920;12.050;2023-09-18T03:10:32;15.30;99.90
13123;DHT22;6627;50.920;12.050;2023-09-18T03:13:00;15.50;99.90
13123;DHT22;6627;50.920;12.050;2023-09-18T03:15:29;15.50;99.90
13123;DHT22;6627;50.920;12.050;2023-09-18T03:17:57;15.40;99.90
13123;DHT22;6627;50.920;12.050;2023-09-18T03:20:27;15.20;99.90
13123;DHT22;6627;50.920;12.050;2023-09-18T03:22:57;15.10;99.90
13123;DHT22;6627;50.920;12.050;2023-09-18T03:25:26;15.30;99.90
13123;DHT22;6627;50.920;12.050;2023-09-18T03:27:56;15.50;99.90
13123;DHT22;6627;50.920;12.050;2023-09-18T03:30:25;15.50;99.90
13123;DHT22;6627;50.920;12.050;2023-09-18T03:32:58;15.40;99.90
13123;DHT22;6627;50.920;12.050;2023-09-18T03:35:31;15.00;99.90
13123;DHT22;6627;50.920;12.050;2023-09-18T03:37:59;14.80;99.90
13123;DHT22;6627;50.920;12.050;2023-09-18T03:40:26;14.80;99.90
13123;DHT22;6627;50.920;12.050;2023-09-18T03:42:53;15.00;99.90
13123;DHT22;6627;50.920;12.050;2023-09-18T03:45:30;15.20;99.90
13123;DHT22;6627;50.920;12.050;2023-09-18T03:47:58;15.20;99.90
13123;DHT22;6627;50.920;12.050;2023-09-18T03:50:26;15.30;99.90
13123;DHT22;6627;50.920;12.050;2023-09-18T03:52:54;15.30;99.90
13123;DHT22;6627;50.920;12.050;2023-09-18T03:55:21;15.40;99.90
13123;DHT22;6627;50.920;12.050;2023-09-18T03:57:48;15.40;99.90
13123;DHT22;6627;50.920;12.050;2023-09-18T04:00:16;15.50;99.90
13123;DHT22;6627;50.920;12.050;2023-09-18T04:02:43;15.50;99.90
13123;DHT22;6627;50.920;12.050;2023-09-18T04:05:12;15.50;99.90
13123;DHT22;6627;50.920;12.050;2023-09-18T04:07:40;15.40;99.90
13123;DHT22;6627;50.920;12.050;2023-09-18T04:10:12;15.40;99.90
13123;DHT22;6627;50.920;12.050;2023-09-18T04:12:50;15.40;99.90
13123;DHT22;6627;50.920;12.050;2023-09-18T04:17:46;15.40;99.90
13123;DHT22;6627;50.920;12.050;2023-09-18T04:20:15;15.40;99.90
13123;DHT22;6627;50.920;12.050;2023-09-18T04:22:44;15.40;99.90
13123;DHT22;6627;50.920;12.050;2023-09-18T04:25:15;15.30;99.90
13123;DHT22;6627;50.920;12.050;2023-09-18T04:27:44;14.90;99.90
13123;DHT22;6627;50.920;12.050;2023-09-18T04:30:12;15.00;99.90
13123;DHT22;6627;50.920;12.050;2023-09-18T04:32:40;15.10;99.90
13123;DHT22;6627;50.920;12.050;2023-09-18T04:35:10;15.20;99.90
13123;DHT22;6627;50.920;12.050;2023-09-18T04:37:40;15.20;99.90
13123;DHT22;6627;50.920;12.050;2023-09-18T04:40:09;15.10;99.90
13123;DHT22;6627;50.920;12.050;2023-09-18T04:42:38;15.20;99.90
13123;DHT22;6627;50.920;12.050;2023-09-18T04:45:07;15.00;99.90
13123;DHT22;6627;50.920;12.050;2023-09-18T04:47:35;14.80;99.90
13123;DHT22;6627;50.920;12.050;2023-09-18T04:50:03;14.80;99.90
13123;DHT22;6627;50.920;12.050;2023-09-18T04:52:32;14.90;99.90
13123;DHT22;6627;50.920;12.050;2023-09-18T04:55:01;15.00;99.90
13123;DHT22;6627;50.920;12.050;2023-09-18T04:57:29;14.90;99.90
13123;DHT22;6627;50.920;12.050;2023-09-18T04:59:56;14.90;99.90
13123;DHT22;6627;50.920;12.050;2023-09-18T05:02:24;14.90;99.90
13123;DHT22;6627;50.920;12.050;2023-09-18T05:04:52;15.00;99.90
13123;DHT22;6627;50.920;12.050;2023-09-18T05:07:22;15.10;99.90
13123;DHT22;6627;50.920;12.050;2023-09-18T05:09:50;15.10;99.90
13123;DHT22;6627;50.920;12.050;2023-09-18T05:12:18;15.10;99.90
13123;DHT22;6627;50.920;12.050;2023-09-18T05:14:46;15.00;99.90
13123;DHT22;6627;50.920;12.050;2023-09-18T05:17:14;15.00;99.90
13123;DHT22;6627;50.920;12.050;2023-09-18T05:19:43;15.00;99.90
13123;DHT22;6627;50.920;12.050;2023-09-18T05:22:11;15.00;99.90
13123;DHT22;6627;50.920;12.050;2023-09-18T05:24:39;14.90;99.90
13123;DHT22;6627;50.920;12.050;2023-09-18T05:27:07;14.70;99.90
13123;DHT22;6627;50.920;12.050;2023-09-18T05:29:38;14.70;99.90
13123;DHT22;6627;50.920;12.050;2023-09-18T05:32:06;14.70;99.90
13123;DHT22;6627;50.920;12.050;2023-09-18T05:34:34;14.70;99.90
13123;DHT22;6627;50.920;12.050;2023-09-18T05:37:01;14.70;99.90
13123;DHT22;6627;50.920;12.050;2023-09-18T05:39:29;14.80;99.90
13123;DHT22;6627;50.920;12.050;2023-09-18T05:41:57;14.90;99.90
13123;DHT22;6627;50.920;12.050;2023-09-18T05:44:26;14.90;99.90
13123;DHT22;6627;50.920;12.050;2023-09-18T05:46:56;14.90;99.90
13123;DHT22;6627;50.920;12.050;2023-09-18T05:49:24;14.90;99.90
13123;DHT22;6627;50.920;12.050;2023-09-18T05:51:51;15.10;99.90
13123;DHT22;6627;50.920;12.050;2023-09-18T05:54:19;14.80;99.90
13123;DHT22;6627;50.920;12.050;2023-09-18T05:56:46;14.90;99.90
13123;DHT22;6627;50.920;12.050;2023-09-18T05:59:14;14.90;99.90
13123;DHT22;6627;50.920;12.050;2023-09-18T06:01:42;15.10;99.90
13123;DHT22;6627;50.920;12.050;2023-09-18T06:04:11;15.10;99.90
13123;DHT22;6627;50.920;12.050;2023-09-18T06:06:39;15.30;99.90
13123;DHT22;6627;50.920;12.050;2023-09-18T06:09:07;15.40;99.90
13123;DHT22;6627;50.920;12.050;2023-09-18T06:11:34;15.70;99.90
13123;DHT22;6627;50.920;12.050;2023-09-18T06:14:02;15.60;99.90
13123;DHT22;6627;50.920;12.050;2023-09-18T06:16:31;15.50;99.90
13123;DHT22;6627;50.920;12.050;2023-09-18T06:18:58;15.50;99.90
13123;DHT22;6627;50.920;12.050;2023-09-18T06:21:27;15.60;99.90
13123;DHT22;6627;50.920;12.050;2023-09-18T06:23:57;15.90;99.90
13123;DHT22;6627;50.920;12.050;2023-09-18T06:26:25;16.00;99.90
13123;DHT22;6627;50.920;12.050;2023-09-18T06:28:54;16.30;99.90
13123;DHT22;6627;50.920;12.050;2023-09-18T06:31:22;16.50;99.90
13123;DHT22;6627;50.920;12.050;2023-09-18T06:33:50;16.60;99.90
13123;DHT22;6627;50.920;12.050;2023-09-18T06:36:17;16.80;99.90
13123;DHT22;6627;50.920;12.050;2023-09-18T06:38:46;16.90;99.90
13123;DHT22;6627;50.920;12.050;2023-09-18T06:41:14;17.00;99.90
13123;DHT22;6627;50.920;12.050;2023-09-18T06:43:41;17.10;99.90
13123;DHT22;6627;50.920;12.050;2023-09-18T06:46:10;17.20;99.90
13123;DHT22;6627;50.920;12.050;2023-09-18T06:51:11;17.40;99.90
13123;DHT22;6627;50.920;12.050;2023-09-18T06:56:08;17.60;99.90
13123;DHT22;6627;50.920;12.050;2023-09-18T06:58:36;17.70;99.90
13123;DHT22;6627;50.920;12.050;2023-09-18T07:01:03;17.80;99.90
13123;DHT22;6627;50.920;12.050;2023-09-18T07:03:32;17.80;99.90
13123;DHT22;6627;50.920;12.050;2023-09-18T07:06:02;17.80;99.90
13123;DHT22;6627;50.920;12.050;2023-09-18T07:08:31;17.80;99.90
13123;DHT22;6627;50.920;12.050;2023-09-18T07:10:59;17.80;99.90
13123;DHT22;6627;50.920;12.050;2023-09-18T07:16:15;17.80;99.90
13123;DHT22;6627;50.920;12.050;2023-09-18T07:21:10;18.00;99.90
13123;DHT22;6627;50.920;12.050;2023-09-18T07:23:40;18.10;99.90
13123;DHT22;6627;50.920;12.050;2023-09-18T07:26:08;18.20;99.90
13123;DHT22;6627;50.920;12.050;2023-09-18T07:28:35;18.30;99.90
13123;DHT22;6627;50.920;12.050;2023-09-18T07:31:07;18.40;99.90
13123;DHT22;6627;50.920;12.050;2023-09-18T07:33:38;18.40;99.90
13123;DHT22;6627;50.920;12.050;2023-09-18T07:36:05;18.50;99.90
13123;DHT22;6627;50.920;12.050;2023-09-18T07:38:33;18.70;99.90
13123;DHT22;6627;50.920;12.050;2023-09-18T07:41:01;18.80;99.90
13123;DHT22;6627;50.920;12.050;2023-09-18T07:45:56;19.30;99.90
13123;DHT22;6627;50.920;12.050;2023-09-18T07:48:28;19.40;99.90
13123;DHT22;6627;50.920;12.050;2023-09-18T07:50:55;19.50;99.90
13123;DHT22;6627;50.920;12.050;2023-09-18T07:53:22;19.60;99.90
13123;DHT22;6627;50.920;12.050;2023-09-18T07:55:55;19.70;99.90
13123;DHT22;6627;50.920;12.050;2023-09-18T07:58:25;19.80;99.90
13123;DHT22;6627;50.920;12.050;2023-09-18T08:00:54;20.00;99.90
13123;DHT22;6627;50.920;12.050;2023-09-18T08:03:22;20.20;99.90
13123;DHT22;6627;50.920;12.050;2023-09-18T08:05:52;20.30;99.90
13123;DHT22;6627;50.920;12.050;2023-09-18T08:08:39;20.50;99.90
13123;DHT22;6627;50.920;12.050;2023-09-18T08:11:07;20.70;99.90
13123;DHT22;6627;50.920;12.050;2023-09-18T08:13:35;20.80;99.90
13123;DHT22;6627;50.920;12.050;2023-09-18T08:16:05;20.80;99.90
13123;DHT22;6627;50.920;12.050;2023-09-18T08:18:40;20.80;99.90
13123;DHT22;6627;50.920;12.050;2023-09-18T08:21:10;20.90;99.90
13123;DHT22;6627;50.920;12.050;2023-09-18T08:23:43;21.10;99.90
13123;DHT22;6627;50.920;12.050;2023-09-18T08:26:11;21.20;99.90
13123;DHT22;6627;50.920;12.050;2023-09-18T08:28:39;21.30;99.90
13123;DHT22;6627;50.920;12.050;2023-09-18T08:31:09;21.70;99.90
13123;DHT22;6627;50.920;12.050;2023-09-18T08:33:52;21.90;99.90
13123;DHT22;6627;50.920;12.050;2023-09-18T08:36:22;22.30;99.90
13123;DHT22;6627;50.920;12.050;2023-09-18T08:38:52;22.40;99.90
13123;DHT22;6627;50.920;12.050;2023-09-18T08:41:23;22.50;99.90
13123;DHT22;6627;50.920;12.050;2023-09-18T08:43:56;22.50;99.90
13123;DHT22;6627;50.920;12.050;2023-09-18T08:46:30;22.40;99.90
13123;DHT22;6627;50.920;12.050;2023-09-18T08:49:00;22.60;99.90
13123;DHT22;6627;50.920;12.050;2023-09-18T08:51:34;22.50;99.90
13123;DHT22;6627;50.920;12.050;2023-09-18T08:54:04;22.50;99.90
13123;DHT22;6627;50.920;12.050;2023-09-18T08:56:33;22.60;99.90
13123;DHT22;6627;50.920;12.050;2023-09-18T08:59:16;22.60;99.90
13123;DHT22;6627;50.920;12.050;2023-09-18T09:01:47;22.70;99.90
13123;DHT22;6627;50.920;12.050;2023-09-18T09:04:22;22.80;99.90
13123;DHT22;6627;50.920;12.050;2023-09-18T09:06:52;22.80;99.90
13123;DHT22;6627;50.920;12.050;2023-09-18T09:09:19;22.80;99.90
13123;DHT22;6627;50.920;12.050;2023-09-18T09:11:50;22.80;99.90
13123;DHT22;6627;50.920;12.050;2023-09-18T09:14:18;22.70;99.90
13123;DHT22;6627;50.920;12.050;2023-09-18T09:16:49;22.70;99.90
13123;DHT22;6627;50.920;12.050;2023-09-18T09:19:17;22.80;99.90
13123;DHT22;6627;50.920;12.050;2023-09-18T09:22:01;22.80;99.90
13123;DHT22;6627;50.920;12.050;2023-09-18T09:24:39;22.80;99.90
13123;DHT22;6627;50.920;12.050;2023-09-18T09:27:08;22.80;99.90
13123;DHT22;6627;50.920;12.050;2023-09-18T09:29:36;22.90;99.90
13123;DHT22;6627;50.920;12.050;2023-09-18T09:32:13;22.90;99.90
13123;DHT22;6627;50.920;12.050;2023-09-18T09:34:41;23.00;99.90
13123;DHT22;6627;50.920;12.050;2023-09-18T09:37:11;23.10;99.90
13123;DHT22;6627;50.920;12.050;2023-09-18T09:39:49;23.30;99.90
13123;DHT22;6627;50.920;12.050;2023-09-18T09:42:18;23.30;99.90
13123;DHT22;6627;50.920;12.050;2023-09-18T09:45:02;23.30;99.90
13123;DHT22;6627;50.920;12.050;2023-09-18T09:47:34;23.40;99.90
13123;DHT22;6627;50.920;12.050;2023-09-18T09:50:09;23.40;99.90
13123;DHT22;6627;50.920;12.050;2023-09-18T09:52:43;23.40;99.90
13123;DHT22;6627;50.920;12.050;2023-09-18T09:55:18;23.50;99.90
13123;DHT22;6627;50.920;12.050;2023-09-18T09:57:49;23.60;99.90
13123;DHT22;6627;50.920;12.050;2023-09-18T10:00:18;23.70;99.90
13123;DHT22;6627;50.920;12.050;2023-09-18T10:02:58;23.90;99.90
13123;DHT22;6627;50.920;12.050;2023-09-18T10:05:30;24.10;99.90
13123;DHT22;6627;50.920;12.050;2023-09-18T10:08:06;24.20;99.90
13123;DHT22;6627;50.920;12.050;2023-09-18T10:10:36;24.40;99.90
13123;DHT22;6627;50.920;12.050;2023-09-18T10:13:10;24.50;99.90
13123;DHT22;6627;50.920;12.050;2023-09-18T10:15:59;24.60;99.90
13123;DHT22;6627;50.920;12.050;2023-09-18T10:18:38;24.70;99.90
13123;DHT22;6627;50.920;12.050;2023-09-18T10:21:16;24.80;99.90
13123;DHT22;6627;50.920;12.050;2023-09-18T10:23:58;24.80;99.90
13123;DHT22;6627;50.920;12.050;2023-09-18T10:26:33;24.90;99.90
13123;DHT22;6627;50.920;12.050;2023-09-18T10:29:07;24.90;99.90
13123;DHT22;6627;50.920;12.050;2023-09-18T10:31:39;24.90;99.90
13123;DHT22;6627;50.920;12.050;2023-09-18T10:34:08;24.90;99.90
13123;DHT22;6627;50.920;12.050;2023-09-18T10:36:41;24.90;99.90
13123;DHT22;6627;50.920;12.050;2023-09-18T10:39:13;24.90;99.90
13123;DHT22;6627;50.920;12.050;2023-09-18T10:41:51;24.90;99.90
13123;DHT22;6627;50.920;12.050;2023-09-18T10:44:36;25.00;99.90
13123;DHT22;6627;50.920;12.050;2023-09-18T10:47:08;25.00;99.90
13123;DHT22;6627;50.920;12.050;2023-09-18T10:49:37;25.00;99.90
13123;DHT22;6627;50.920;12.050;2023-09-18T10:52:05;25.00;99.90
13123;DHT22;6627;50.920;12.050;2023-09-18T10:54:39;25.00;99.90
13123;DHT22;6627;50.920;12.050;2023-09-18T10:57:07;25.00;99.90
13123;DHT22;6627;50.920;12.050;2023-09-18T10:59:43;25.00;99.90
13123;DHT22;6627;50.920;12.050;2023-09-18T11:02:27;25.00;99.90
13123;DHT22;6627;50.920;12.050;2023-09-18T11:04:56;25.00;99.90
13123;DHT22;6627;50.920;12.050;2023-09-18T11:07:23;25.00;99.90
13123;DHT22;6627;50.920;12.050;2023-09-18T11:09:53;25.00;99.90
13123;DHT22;6627;50.920;12.050;2023-09-18T11:12:44;25.00;99.90
13123;DHT22;6627;50.920;12.050;2023-09-18T11:15:25;24.90;99.90
13123;DHT22;6627;50.920;12.050;2023-09-18T11:17:59;25.00;99.90
13123;DHT22;6627;50.920;12.050;2023-09-18T11:20:30;24.90;99.90
13123;DHT22;6627;50.920;12.050;2023-09-18T11:23:10;24.90;99.90
13123;DHT22;6627;50.920;12.050;2023-09-18T11:25:45;24.90;99.90
13123;DHT22;6627;50.920;12.050;2023-09-18T11:30:51;24.80;99.90
13123;DHT22;6627;50.920;12.050;2023-09-18T11:33:36;24.80;99.90
13123;DHT22;6627;50.920;12.050;2023-09-18T11:36:09;24.80;99.90
13123;DHT22;6627;50.920;12.050;2023-09-18T11:38:54;24.70;99.90
13123;DHT22;6627;50.920;12.050;2023-09-18T11:41:26;24.60;99.90
13123;DHT22;6627;50.920;12.050;2023-09-18T11:47:01;24.40;99.90
13123;DHT22;6627;50.920;12.050;2023-09-18T11:49:30;24.30;99.90
13123;DHT22;6627;50.920;12.050;2023-09-18T11:51:59;24.20;99.90
13123;DHT22;6627;50.920;12.050;2023-09-18T11:54:28;24.00;99.90
13123;DHT22;6627;50.920;12.050;2023-09-18T11:57:02;24.10;99.90
13123;DHT22;6627;50.920;12.050;2023-09-18T11:59:37;24.00;99.90
13123;DHT22;6627;50.920;12.050;2023-09-18T12:02:07;23.90;99.90
13123;DHT22;6627;50.920;12.050;2023-09-18T12:04:34;23.80;99.90
13123;DHT22;6627;50.920;12.050;2023-09-18T12:07:04;23.70;99.90
13123;DHT22;6627;50.920;12.050;2023-09-18T12:09:33;23.60;99.90
13123;DHT22;6627;50.920;12.050;2023-09-18T12:12:05;23.60;99.90
13123;DHT22;6627;50.920;12.050;2023-09-18T12:14:38;23.50;99.90
13123;DHT22;6627;50.920;12.050;2023-09-18T12:17:08;23.40;99.90
13123;DHT22;6627;50.920;12.050;2023-09-18T12:19:35;23.40;99.90
13123;DHT22;6627;50.920;12.050;2023-09-18T12:22:03;23.40;99.90
13123;DHT22;6627;50.920;12.050;2023-09-18T12:24:32;23.40;99.90
13123;DHT22;6627;50.920;12.050;2023-09-18T12:27:01;23.30;99.90
13123;DHT22;6627;50.920;12.050;2023-09-18T12:29:32;23.30;99.90
13123;DHT22;6627;50.920;12.050;2023-09-18T12:32:00;23.30;99.90
13123;DHT22;6627;50.920;12.050;2023-09-18T12:34:32;23.30;99.90
13123;DHT22;6627;50.920;12.050;2023-09-18T12:37:00;23.30;99.90
13123;DHT22;6627;50.920;12.050;2023-09-18T12:39:32;23.40;99.90
13123;DHT22;6627;50.920;12.050;2023-09-18T12:42:02;23.30;99.90
13123;DHT22;6627;50.920;12.050;2023-09-18T12:44:30;23.30;99.90
13123;DHT22;6627;50.920;12.050;2023-09-18T12:46:58;23.30;99.90
13123;DHT22;6627;50.920;12.050;2023-09-18T12:49:29;23.10;99.90
13123;DHT22;6627;50.920;12.050;2023-09-18T12:52:00;23.20;99.90
13123;DHT22;6627;50.920;12.050;2023-09-18T12:54:37;23.10;99.90
13123;DHT22;6627;50.920;12.050;2023-09-18T12:57:08;23.10;99.90
13123;DHT22;6627;50.920;12.050;2023-09-18T12:59:37;23.00;99.90
13123;DHT22;6627;50.920;12.050;2023-09-18T13:02:05;23.10;99.90
13123;DHT22;6627;50.920;12.050;2023-09-18T13:04:34;23.00;99.90
13123;DHT22;6627;50.920;12.050;2023-09-18T13:07:09;23.10;99.90
13123;DHT22;6627;50.920;12.050;2023-09-18T13:09:38;23.00;99.90
13123;DHT22;6627;50.920;12.050;2023-09-18T13:12:09;22.90;99.90
13123;DHT22;6627;50.920;12.050;2023-09-18T13:14:59;22.90;99.90
13123;DHT22;6627;50.920;12.050;2023-09-18T13:17:40;22.90;99.90
13123;DHT22;6627;50.920;12.050;2023-09-18T13:20:12;22.60;99.90
13123;DHT22;6627;50.920;12.050;2023-09-18T13:22:48;22.60;99.90
13123;DHT22;6627;50.920;12.050;2023-09-18T13:25:21;22.60;99.90
13123;DHT22;6627;50.920;12.050;2023-09-18T13:27:53;22.40;99.90
13123;DHT22;6627;50.920;12.050;2023-09-18T13:30:24;22.50;99.90
13123;DHT22;6627;50.920;12.050;2023-09-18T13:33:02;22.30;99.90
13123;DHT22;6627;50.920;12.050;2023-09-18T13:35:32;21.80;99.90
13123;DHT22;6627;50.920;12.050;2023-09-18T13:38:01;21.50;99.90
13123;DHT22;6627;50.920;12.050;2023-09-18T13:40:30;21.60;99.90
13123;DHT22;6627;50.920;12.050;2023-09-18T13:43:00;21.50;99.90
13123;DHT22;6627;50.920;12.050;2023-09-18T13:45:30;21.50;99.90
13123;DHT22;6627;50.920;12.050;2023-09-18T13:47:57;21.60;99.90
13123;DHT22;6627;50.920;12.050;2023-09-18T13:50:25;21.70;99.90
13123;DHT22;6627;50.920;12.050;2023-09-18T13:52:54;21.50;99.90
13123;DHT22;6627;50.920;12.050;2023-09-18T13:55:22;21.10;99.90
13123;DHT22;6627;50.920;12.050;2023-09-18T13:57:50;20.80;99.90
13123;DHT22;6627;50.920;12.050;2023-09-18T14:02:50;20.60;99.90
13123;DHT22;6627;50.920;12.050;2023-09-18T14:05:17;20.60;99.90
13123;DHT22;6627;50.920;12.050;2023-09-18T14:10:14;20.40;99.90
13123;DHT22;6627;50.920;12.050;2023-09-18T14:12:45;20.30;99.90
13123;DHT22;6627;50.920;12.050;2023-09-18T14:15:13;20.20;99.90
13123;DHT22;6627;50.920;12.050;2023-09-18T14:17:42;20.20;99.90
13123;DHT22;6627;50.920;12.050;2023-09-18T14:20:09;20.20;99.90
13123;DHT22;6627;50.920;12.050;2023-09-18T14:22:37;20.20;99.90
13123;DHT22;6627;50.920;12.050;2023-09-18T14:25:05;20.40;99.90
13123;DHT22;6627;50.920;12.050;2023-09-18T14:27:34;20.40;99.90
13123;DHT22;6627;50.920;12.050;2023-09-18T14:30:03;20.20;99.90
13123;DHT22;6627;50.920;12.050;2023-09-18T14:32:32;20.20;99.90
13123;DHT22;6627;50.920;12.050;2023-09-18T14:35:07;20.30;99.90
13123;DHT22;6627;50.920;12.050;2023-09-18T14:37:35;20.40;99.90
13123;DHT22;6627;50.920;12.050;2023-09-18T14:42:35;20.30;99.90
13123;DHT22;6627;50.920;12.050;2023-09-18T14:45:08;20.10;99.90
13123;DHT22;6627;50.920;12.050;2023-09-18T14:47:38;20.20;99.90
13123;DHT22;6627;50.920;12.050;2023-09-18T14:50:07;20.20;99.90
13123;DHT22;6627;50.920;12.050;2023-09-18T14:52:35;20.10;99.90
13123;DHT22;6627;50.920;12.050;2023-09-18T14:55:18;19.80;99.90
13123;DHT22;6627;50.920;12.050;2023-09-18T14:57:45;19.90;99.90
13123;DHT22;6627;50.920;12.050;2023-09-18T15:00:15;19.80;99.90
13123;DHT22;6627;50.920;12.050;2023-09-18T15:02:42;19.90;99.90
13123;DHT22;6627;50.920;12.050;2023-09-18T15:05:11;19.70;99.90
13123;DHT22;6627;50.920;12.050;2023-09-18T15:07:41;19.80;99.90
13123;DHT22;6627;50.920;12.050;2023-09-18T15:10:09;19.60;99.90
13123;DHT22;6627;50.920;12.050;2023-09-18T15:12:37;19.60;99.90
13123;DHT22;6627;50.920;12.050;2023-09-18T15:15:07;19.60;99.90
13123;DHT22;6627;50.920;12.050;2023-09-18T15:17:34;19.50;99.90
13123;DHT22;6627;50.920;12.050;2023-09-18T15:20:04;19.50;99.90
13123;DHT22;6627;50.920;12.050;2023-09-18T15:22:43;19.50;99.90
13123;DHT22;6627;50.920;12.050;2023-09-18T15:25:10;19.60;99.90
13123;DHT22;6627;50.920;12.050;2023-09-18T15:27:38;19.60;99.90
13123;DHT22;6627;50.920;12.050;2023-09-18T15:30:06;19.50;99.90
13123;DHT22;6627;50.920;12.050;2023-09-18T15:32:47;19.50;99.90
13123;DHT22;6627;50.920;12.050;2023-09-18T15:35:18;19.50;99.90
13123;DHT22;6627;50.920;12.050;2023-09-18T15:37:47;19.40;99.90
13123;DHT22;6627;50.920;12.050;2023-09-18T15:40:15;19.30;99.90
13123;DHT22;6627;50.920;12.050;2023-09-18T15:42:45;19.50;99.90
13123;DHT22;6627;50.920;12.050;2023-09-18T15:45:14;19.50;99.90
13123;DHT22;6627;50.920;12.050;2023-09-18T15:47:42;19.40;99.90
13123;DHT22;6627;50.920;12.050;2023-09-18T15:50:11;19.20;99.90
13123;DHT22;6627;50.920;12.050;2023-09-18T15:52:39;19.00;99.90
13123;DHT22;6627;50.920;12.050;2023-09-18T15:55:09;18.90;99.90
13123;DHT22;6627;50.920;12.050;2023-09-18T15:57:37;18.80;99.90
13123;DHT22;6627;50.920;12.050;2023-09-18T16:00:10;18.80;99.90
13123;DHT22;6627;50.920;12.050;2023-09-18T16:02:39;18.80;99.90
13123;DHT22;6627;50.920;12.050;2023-09-18T16:05:08;18.90;99.90
13123;DHT22;6627;50.920;12.050;2023-09-18T16:07:39;19.10;99.90
13123;DHT22;6627;50.920;12.050;2023-09-18T16:10:27;19.00;99.90
13123;DHT22;6627;50.920;12.050;2023-09-18T16:12:54;18.90;99.90
13123;DHT22;6627;50.920;12.050;2023-09-18T16:15:22;18.90;99.90
13123;DHT22;6627;50.920;12.050;2023-09-18T16:17:49;18.80;99.90
13123;DHT22;6627;50.920;12.050;2023-09-18T16:20:17;18.80;99.90
13123;DHT22;6627;50.920;12.050;2023-09-18T16:22:44;18.60;99.90
13123;DHT22;6627;50.920;12.050;2023-09-18T16:25:13;18.70;99.90
13123;DHT22;6627;50.920;12.050;2023-09-18T16:27:43;18.70;99.90
13123;DHT22;6627;50.920;12.050;2023-09-18T16:30:12;18.70;99.90
13123;DHT22;6627;50.920;12.050;2023-09-18T16:32:40;18.80;99.90
13123;DHT22;6627;50.920;12.050;2023-09-18T16:35:08;18.70;99.90
13123;DHT22;6627;50.920;12.050;2023-09-18T16:37:35;18.80;99.90
13123;DHT22;6627;50.920;12.050;2023-09-18T16:40:04;18.70;99.90